createdAt,value
2023-02-27T00:00:05.639Z,2.97
2023-02-27T00:02:33.905Z,3.15
2023-02-27T00:05:03.723Z,2.45
2023-02-27T00:07:32.095Z,2.60
2023-02-27T00:10:00.280Z,2.67
2023-02-27T00:12:28.633Z,2.72
2023-02-27T00:14:56.943Z,2.40
2023-02-27T00:17:25.986Z,2.20
2023-02-27T00:19:54.266Z,2.38
2023-02-27T00:22:23.908Z,2.55
2023-02-27T00:24:52.139Z,2.50
2023-02-27T00:27:20.552Z,2.30
2023-02-27T00:29:48.790Z,2.47
2023-02-27T00:32:19.072Z,2.05
2023-02-27T00:34:47.330Z,2.30
2023-02-27T00:37:15.800Z,2.40
2023-02-27T00:39:45.486Z,2.70
2023-02-27T00:42:13.756Z,2.60
2023-02-27T00:44:41.992Z,2.13
2023-02-27T00:47:11.514Z,2.50
2023-02-27T00:49:39.786Z,2.17
2023-02-27T00:52:08.119Z,2.35
2023-02-27T00:54:36.428Z,2.35
2023-02-27T00:57:08.130Z,2.38
2023-02-27T00:59:36.380Z,2.10
2023-02-27T01:02:04.763Z,2.20
2023-02-27T01:04:35.022Z,2.35
2023-02-27T01:07:03.645Z,2.05
2023-02-27T01:09:31.904Z,2.83
2023-02-27T01:12:00.604Z,2.38
2023-02-27T01:14:30.293Z,2.40
2023-02-27T01:16:59.317Z,2.33
2023-02-27T01:19:27.740Z,2.63
2023-02-27T01:21:55.878Z,2.60
2023-02-27T01:24:24.123Z,2.13
2023-02-27T01:26:53.033Z,2.10
2023-02-27T01:29:21.585Z,2.38
2023-02-27T01:31:52.828Z,2.60
2023-02-27T01:34:21.243Z,2.10
2023-02-27T01:36:49.482Z,2.72
2023-02-27T01:39:21.461Z,2.50
2023-02-27T01:41:49.711Z,2.10
2023-02-27T01:44:18.001Z,2.35
2023-02-27T01:46:46.323Z,2.10
2023-02-27T01:49:20.941Z,2.38
2023-02-27T01:51:51.982Z,2.22
2023-02-27T01:54:23.880Z,2.63
2023-02-27T01:56:52.566Z,2.63
2023-02-27T01:59:21.461Z,2.53
2023-02-27T02:01:50.061Z,2.35
2023-02-27T02:04:28.032Z,2.20
2023-02-27T02:07:01.908Z,2.22
2023-02-27T02:09:31.391Z,2.22
2023-02-27T02:12:00.998Z,1.88
2023-02-27T02:14:29.266Z,2.47
2023-02-27T02:17:14.541Z,2.10
2023-02-27T02:20:23.262Z,2.58
2023-02-27T02:23:45.669Z,2.53
2023-02-27T02:26:48.779Z,2.22
2023-02-27T02:30:15.574Z,2.40
2023-02-27T02:33:34.492Z,2.45
2023-02-27T02:36:41.812Z,2.42
2023-02-27T02:40:07.776Z,1.88
2023-02-27T02:42:43.575Z,2.20
2023-02-27T02:45:18.908Z,1.98
2023-02-27T02:48:05.547Z,2.13
2023-02-27T02:50:40.714Z,2.33
2023-02-27T02:53:25.062Z,2.03
2023-02-27T02:56:01.863Z,2.40
2023-02-27T02:58:37.521Z,2.22
2023-02-27T03:01:14.221Z,2.15
2023-02-27T03:03:49.149Z,1.80
2023-02-27T03:06:24.823Z,2.03
2023-02-27T03:08:56.905Z,2.40
2023-02-27T03:11:31.064Z,2.47
2023-02-27T03:14:07.396Z,2.17
2023-02-27T03:16:41.235Z,1.92
2023-02-27T03:19:17.808Z,2.13
2023-02-27T03:21:50.515Z,2.63
2023-02-27T03:24:27.495Z,2.08
2023-02-27T03:27:02.941Z,2.10
2023-02-27T03:29:38.860Z,2.28
2023-02-27T03:32:14.908Z,2.20
2023-02-27T03:34:45.194Z,1.88
2023-02-27T03:37:30.058Z,1.88
2023-02-27T03:40:08.075Z,1.70
2023-02-27T03:42:43.007Z,1.60
2023-02-27T03:45:21.206Z,1.75
2023-02-27T03:47:49.579Z,1.95
2023-02-27T03:50:18.973Z,1.98
2023-02-27T03:52:47.704Z,2.10
2023-02-27T03:55:19.736Z,2.10
2023-02-27T03:57:51.212Z,1.80
2023-02-27T04:00:22.684Z,1.88
2023-02-27T04:02:53.943Z,2.25
2023-02-27T04:05:23.482Z,2.25
2023-02-27T04:08:12.310Z,1.85
2023-02-27T04:11:19.520Z,2.03
2023-02-27T04:14:12.427Z,2.00
2023-02-27T04:17:24.481Z,1.95
2023-02-27T04:20:23.950Z,2.13
2023-02-27T04:22:58.137Z,1.90
2023-02-27T04:25:54.193Z,1.70
2023-02-27T04:28:29.154Z,2.30
2023-02-27T04:31:06.925Z,1.92
2023-02-27T04:33:45.857Z,2.00
2023-02-27T04:36:21.341Z,1.90
2023-02-27T04:38:55.576Z,2.22
2023-02-27T04:41:29.640Z,1.45
2023-02-27T04:43:59.526Z,2.25
2023-02-27T04:46:34.487Z,2.50
2023-02-27T04:49:07.057Z,2.30
2023-02-27T04:51:39.985Z,2.08
2023-02-27T04:54:12.760Z,2.00
2023-02-27T04:56:46.679Z,1.75
2023-02-27T04:59:19.439Z,2.60
2023-02-27T05:01:55.307Z,1.88
2023-02-27T05:04:27.151Z,2.20
2023-02-27T05:06:57.400Z,1.90
2023-02-27T05:09:32.862Z,2.08
2023-02-27T05:12:05.383Z,1.90
2023-02-27T05:14:39.824Z,1.95
2023-02-27T05:17:13.998Z,1.90
2023-02-27T05:19:43.969Z,2.50
2023-02-27T05:22:24.394Z,2.22
2023-02-27T05:24:59.459Z,1.85
2023-02-27T05:27:36.114Z,2.22
2023-02-27T05:30:12.561Z,2.92
2023-02-27T05:32:47.622Z,2.17
2023-02-27T05:35:27.463Z,2.20
2023-02-27T05:38:05.728Z,2.30
2023-02-27T05:40:38.846Z,2.90
2023-02-27T05:43:12.330Z,2.70
2023-02-27T05:45:44.535Z,2.42
2023-02-27T05:48:19.906Z,2.60
2023-02-27T05:50:52.190Z,2.50
2023-02-27T05:53:23.071Z,2.58
2023-02-27T05:55:54.701Z,2.53
2023-02-27T05:58:29.942Z,3.15
2023-02-27T06:01:01.779Z,3.25
2023-02-27T06:03:34.430Z,3.13
2023-02-27T06:06:05.951Z,2.80
2023-02-27T06:08:35.205Z,3.05
2023-02-27T06:11:03.806Z,2.80
2023-02-27T06:13:32.636Z,2.70
2023-02-27T06:16:00.907Z,2.50
2023-02-27T06:18:30.480Z,2.67
2023-02-27T06:20:58.709Z,2.83
2023-02-27T06:23:26.976Z,2.90
2023-02-27T06:25:55.218Z,2.22
2023-02-27T06:28:23.416Z,2.50
2023-02-27T06:30:55.202Z,2.40
2023-02-27T06:33:23.593Z,2.92
2023-02-27T06:35:53.785Z,2.33
2023-02-27T06:38:22.081Z,2.50
2023-02-27T06:40:51.840Z,2.65
2023-02-27T06:43:22.900Z,2.75
2023-02-27T06:45:51.247Z,2.80
2023-02-27T06:48:19.581Z,2.63
2023-02-27T06:50:56.254Z,3.30
2023-02-27T06:53:24.972Z,3.15
2023-02-27T06:55:53.726Z,3.03
2023-02-27T06:58:22.006Z,2.85
2023-02-27T07:00:54.809Z,2.35
2023-02-27T07:03:23.010Z,2.90
2023-02-27T07:05:51.739Z,2.72
2023-02-27T07:08:21.451Z,2.75
2023-02-27T07:10:50.128Z,3.08
2023-02-27T07:13:21.434Z,2.72
2023-02-27T07:15:49.664Z,3.00
2023-02-27T07:18:21.288Z,2.97
2023-02-27T07:20:52.138Z,2.85
2023-02-27T07:23:22.253Z,2.83
2023-02-27T07:25:50.891Z,2.67
2023-02-27T07:28:19.645Z,2.75
2023-02-27T07:30:48.497Z,3.10
2023-02-27T07:33:16.774Z,2.80
2023-02-27T07:35:48.634Z,3.45
2023-02-27T07:38:19.002Z,3.13
2023-02-27T07:40:48.943Z,2.70
2023-02-27T07:43:17.353Z,2.85
2023-02-27T07:45:47.096Z,2.95
2023-02-27T07:48:15.445Z,2.55
2023-02-27T07:50:43.939Z,2.60
2023-02-27T07:53:13.417Z,2.63
2023-02-27T07:55:41.742Z,2.78
2023-02-27T07:58:11.294Z,3.25
2023-02-27T08:00:39.604Z,3.60
2023-02-27T08:03:08.141Z,3.00
2023-02-27T08:05:36.795Z,3.00
2023-02-27T08:08:05.179Z,2.90
2023-02-27T08:10:33.385Z,2.90
2023-02-27T08:13:01.563Z,3.80
2023-02-27T08:15:32.707Z,3.03
2023-02-27T08:18:00.983Z,3.28
2023-02-27T08:20:29.311Z,2.90
2023-02-27T08:22:57.961Z,3.08
2023-02-27T08:25:26.360Z,3.80
2023-02-27T08:27:54.632Z,3.20
2023-02-27T08:30:23.107Z,3.00
2023-02-27T08:32:52.871Z,3.38
2023-02-27T08:35:21.126Z,3.60
2023-02-27T08:37:49.768Z,3.45
2023-02-27T08:40:18.779Z,3.42
2023-02-27T08:42:47.034Z,3.30
2023-02-27T08:45:17.326Z,3.00
2023-02-27T08:47:46.353Z,2.85
2023-02-27T08:50:15.949Z,2.50
2023-02-27T08:52:44.477Z,2.55
2023-02-27T08:55:12.833Z,2.40
2023-02-27T08:57:41.420Z,2.50
2023-02-27T09:00:17.286Z,2.53
2023-02-27T09:02:47.766Z,2.20
2023-02-27T09:05:20.932Z,2.53
2023-02-27T09:07:49.473Z,1.92
2023-02-27T09:10:20.461Z,2.10
2023-02-27T09:12:49.482Z,1.85
2023-02-27T09:15:18.592Z,2.22
2023-02-27T09:17:47.177Z,2.08
2023-02-27T09:20:16.996Z,1.80
2023-02-27T09:22:48.521Z,2.03
2023-02-27T09:25:17.023Z,1.85
2023-02-27T09:27:45.709Z,2.15
2023-02-27T09:30:14.749Z,2.10
2023-02-27T09:32:43.191Z,2.42
2023-02-27T09:35:13.743Z,2.20
2023-02-27T09:37:43.998Z,2.40
2023-02-27T09:40:20.472Z,2.30
2023-02-27T09:42:49.761Z,1.98
2023-02-27T09:45:24.732Z,1.98
2023-02-27T09:47:56.829Z,1.90
2023-02-27T09:50:39.328Z,1.98
2023-02-27T09:53:14.989Z,1.98
2023-02-27T09:55:46.123Z,1.48
2023-02-27T09:58:35.739Z,1.85
2023-02-27T10:01:11.524Z,1.95
2023-02-27T10:04:28.740Z,1.73
2023-02-27T10:07:07.302Z,1.52
2023-02-27T10:09:53.293Z,1.83
2023-02-27T10:12:47.743Z,1.92
2023-02-27T10:15:26.155Z,1.70
2023-02-27T10:18:13.587Z,1.83
2023-02-27T10:20:55.955Z,1.95
2023-02-27T10:23:36.280Z,1.67
2023-02-27T10:26:06.892Z,1.73
2023-02-27T10:28:35.471Z,1.45
2023-02-27T10:31:04.842Z,1.35
2023-02-27T10:33:40.378Z,1.50
2023-02-27T10:36:30.672Z,1.52
2023-02-27T10:39:08.839Z,1.60
2023-02-27T10:41:42.183Z,1.50
2023-02-27T10:44:17.641Z,1.60
2023-02-27T10:46:49.016Z,1.35
2023-02-27T10:49:21.886Z,1.55
2023-02-27T10:52:10.729Z,1.42
2023-02-27T10:54:39.881Z,1.63
2023-02-27T10:57:28.733Z,1.75
2023-02-27T11:00:00.563Z,1.30
2023-02-27T11:02:37.829Z,1.52
2023-02-27T11:05:20.583Z,1.80
2023-02-27T11:07:50.206Z,1.65
2023-02-27T11:10:22.540Z,1.90
2023-02-27T11:13:08.370Z,1.70
2023-02-27T11:15:39.541Z,1.40
2023-02-27T11:18:29.259Z,1.50
2023-02-27T11:21:20.766Z,1.80
2023-02-27T11:23:59.939Z,1.35
2023-02-27T11:26:33.664Z,1.42
2023-02-27T11:29:14.985Z,1.48
2023-02-27T11:31:50.409Z,1.63
2023-02-27T11:34:25.301Z,1.98
2023-02-27T11:36:57.713Z,1.40
2023-02-27T11:39:31.443Z,1.60
2023-02-27T11:42:15.406Z,1.85
2023-02-27T11:44:58.859Z,1.50
2023-02-27T11:47:36.614Z,1.50
2023-02-27T11:50:36.060Z,1.52
2023-02-27T11:53:27.662Z,1.10
2023-02-27T11:55:59.557Z,1.55
2023-02-27T11:58:39.852Z,1.30
2023-02-27T12:01:18.241Z,1.50
2023-02-27T12:03:59.106Z,1.40
2023-02-27T12:06:36.895Z,1.60
2023-02-27T12:09:20.144Z,1.50
2023-02-27T12:11:50.428Z,1.40
2023-02-27T12:14:26.463Z,2.40
2023-02-27T12:17:16.593Z,1.30
2023-02-27T12:19:56.082Z,1.30
2023-02-27T12:22:30.992Z,1.65
2023-02-27T12:25:08.848Z,1.73
2023-02-27T12:27:47.873Z,1.70
2023-02-27T12:30:23.828Z,1.52
2023-02-27T12:33:01.129Z,1.45
2023-02-27T12:35:34.145Z,1.65
2023-02-27T12:38:13.143Z,1.70
2023-02-27T12:40:57.063Z,1.60
2023-02-27T12:43:35.479Z,1.65
2023-02-27T12:46:33.621Z,1.60
2023-02-27T12:49:20.394Z,2.00
2023-02-27T12:52:01.333Z,1.60
2023-02-27T12:54:41.460Z,1.60
2023-02-27T12:57:29.453Z,1.48
2023-02-27T13:00:18.147Z,1.90
2023-02-27T13:03:00.882Z,1.67
2023-02-27T13:05:43.345Z,2.10
2023-02-27T13:08:30.622Z,1.85
2023-02-27T13:11:08.523Z,1.50
2023-02-27T13:13:45.120Z,1.80
2023-02-27T13:16:19.453Z,1.60
2023-02-27T13:18:55.752Z,1.60
2023-02-27T13:21:33.151Z,1.35
2023-02-27T13:24:26.324Z,1.88
2023-02-27T13:27:00.566Z,1.67
2023-02-27T13:29:38.154Z,1.55
2023-02-27T13:32:32.747Z,2.45
2023-02-27T13:35:24.546Z,1.52
2023-02-27T13:37:57.892Z,1.80
2023-02-27T13:40:37.809Z,1.40
2023-02-27T13:43:28.973Z,1.67
2023-02-27T13:46:00.087Z,1.50
2023-02-27T13:48:52.244Z,1.60
2023-02-27T13:51:54.561Z,1.55
2023-02-27T13:54:34.213Z,1.80
2023-02-27T13:57:24.424Z,1.60
2023-02-27T14:00:10.104Z,1.60
2023-02-27T14:03:00.523Z,1.25
2023-02-27T14:05:36.597Z,1.40
2023-02-27T14:08:15.772Z,1.70
2023-02-27T14:11:01.171Z,1.27
2023-02-27T14:14:05.980Z,1.55
2023-02-27T14:16:56.109Z,1.48
2023-02-27T14:20:00.864Z,1.15
2023-02-27T14:22:44.039Z,1.00
2023-02-27T14:25:24.924Z,1.48
2023-02-27T14:27:57.973Z,1.50
2023-02-27T14:30:46.952Z,1.25
2023-02-27T14:33:39.158Z,1.70
2023-02-27T14:36:12.627Z,2.00
2023-02-27T14:38:40.968Z,2.28
2023-02-27T14:41:48.708Z,1.42
2023-02-27T14:44:24.138Z,1.58
2023-02-27T14:46:55.137Z,1.60
2023-02-27T14:49:28.748Z,1.67
2023-02-27T14:51:58.003Z,1.50
2023-02-27T14:54:33.440Z,1.23
2023-02-27T14:57:05.010Z,1.50
2023-02-27T14:59:43.804Z,1.50
2023-02-27T15:02:24.498Z,1.50
2023-02-27T15:05:16.117Z,1.25
2023-02-27T15:07:48.839Z,1.50
2023-02-27T15:10:26.950Z,1.48
2023-02-27T15:12:55.411Z,1.60
2023-02-27T15:15:25.032Z,1.65
2023-02-27T15:17:56.649Z,1.35
2023-02-27T15:20:30.849Z,1.30
2023-02-27T15:23:00.094Z,1.60
2023-02-27T15:25:32.368Z,1.38
2023-02-27T15:28:05.003Z,1.30
2023-02-27T15:30:35.194Z,1.67
2023-02-27T15:33:03.922Z,1.73
2023-02-27T15:35:37.692Z,1.85
2023-02-27T15:38:08.733Z,1.60
2023-02-27T15:40:37.371Z,1.50
2023-02-27T15:43:10.878Z,1.30
2023-02-27T15:45:42.718Z,1.75
2023-02-27T15:48:19.508Z,2.08
2023-02-27T15:50:51.103Z,1.70
2023-02-27T15:53:23.031Z,1.50
2023-02-27T15:55:53.797Z,1.40
2023-02-27T15:58:26.373Z,1.50
2023-02-27T16:01:02.072Z,2.00
2023-02-27T16:03:36.159Z,1.48
2023-02-27T16:06:12.617Z,1.40
2023-02-27T16:08:47.205Z,1.63
2023-02-27T16:11:20.948Z,1.52
2023-02-27T16:13:50.352Z,1.45
2023-02-27T16:16:31.953Z,1.40
2023-02-27T16:19:03.491Z,1.40
2023-02-27T16:21:32.748Z,1.38
2023-02-27T16:24:20.404Z,1.20
2023-02-27T16:26:53.291Z,2.00
2023-02-27T16:29:24.597Z,2.67
2023-02-27T16:31:56.813Z,2.20
2023-02-27T16:34:44.713Z,3.28
2023-02-27T16:37:21.846Z,2.47
2023-02-27T16:39:52.820Z,2.97
2023-02-27T16:42:21.717Z,2.88
2023-02-27T16:44:50.085Z,2.60
2023-02-27T16:47:22.923Z,2.10
2023-02-27T16:49:51.820Z,1.60
2023-02-27T16:52:22.665Z,1.90
2023-02-27T16:54:51.442Z,1.73
2023-02-27T16:57:20.009Z,1.70
2023-02-27T16:59:48.410Z,1.67
2023-02-27T17:02:17.873Z,1.48
2023-02-27T17:04:48.467Z,2.08
2023-02-27T17:07:19.082Z,1.58
2023-02-27T17:09:48.356Z,1.70
2023-02-27T17:12:16.781Z,1.75
2023-02-27T17:14:45.228Z,1.73
2023-02-27T17:17:13.478Z,1.65
2023-02-27T17:19:41.790Z,2.30
2023-02-27T17:22:11.357Z,1.63
2023-02-27T17:24:40.144Z,2.00
2023-02-27T17:27:09.397Z,2.00
2023-02-27T17:29:39.294Z,1.83
2023-02-27T17:32:07.850Z,1.92
2023-02-27T17:34:36.672Z,1.90
2023-02-27T17:37:04.934Z,1.98
2023-02-27T17:39:34.860Z,1.77
2023-02-27T17:42:08.328Z,9.75
2023-02-27T17:44:36.550Z,3.83
2023-02-27T17:47:04.853Z,2.40
2023-02-27T17:49:33.120Z,2.08
2023-02-27T17:52:01.671Z,2.25
2023-02-27T17:54:29.961Z,5.32
2023-02-27T17:57:02.681Z,6.07
2023-02-27T17:59:31.630Z,3.33
2023-02-27T18:02:00.130Z,2.88
2023-02-27T18:04:28.461Z,2.67
2023-02-27T18:06:56.696Z,2.35
2023-02-27T18:09:25.286Z,2.63
2023-02-27T18:11:53.535Z,8.68
2023-02-27T18:14:23.255Z,6.20
2023-02-27T18:16:51.656Z,23.90
2023-02-27T18:19:24.421Z,11.32
2023-02-27T18:21:52.844Z,4.70
2023-02-27T18:24:21.569Z,3.85
2023-02-27T18:26:49.840Z,3.95
2023-02-27T18:29:20.092Z,4.50
2023-02-27T18:31:50.493Z,6.18
2023-02-27T18:34:18.984Z,5.10
2023-02-27T18:36:47.318Z,5.60
2023-02-27T18:39:16.288Z,5.95
2023-02-27T18:41:44.839Z,5.85
2023-02-27T18:44:15.898Z,5.88
2023-02-27T18:46:44.580Z,4.40
2023-02-27T18:49:15.944Z,4.70
2023-02-27T18:51:45.901Z,7.47
2023-02-27T18:54:26.842Z,7.00
2023-02-27T18:56:55.219Z,4.93
2023-02-27T18:59:23.496Z,4.78
2023-02-27T19:01:56.374Z,4.40
2023-02-27T19:04:26.497Z,5.07
2023-02-27T19:06:54.895Z,6.10
2023-02-27T19:09:23.319Z,5.90
2023-02-27T19:11:51.567Z,6.75
2023-02-27T19:14:19.990Z,8.88
2023-02-27T19:16:50.784Z,10.85
2023-02-27T19:19:19.903Z,11.00
2023-02-27T19:21:49.845Z,8.20
2023-02-27T19:24:20.292Z,7.28
2023-02-27T19:26:48.610Z,9.00
2023-02-27T19:29:22.014Z,9.63
2023-02-27T19:31:53.388Z,7.88
2023-02-27T19:34:22.126Z,9.65
2023-02-27T19:36:51.696Z,11.57
2023-02-27T19:39:22.540Z,13.25
2023-02-27T19:41:50.849Z,13.32
2023-02-27T19:44:19.179Z,7.50
2023-02-27T19:46:51.372Z,7.55
2023-02-27T19:49:20.355Z,6.72
2023-02-27T19:51:48.743Z,5.25
2023-02-27T19:54:19.606Z,6.55
2023-02-27T19:56:47.938Z,7.38
2023-02-27T19:59:18.357Z,9.20
2023-02-27T20:01:46.686Z,7.25
2023-02-27T20:04:19.414Z,6.65
2023-02-27T20:06:50.828Z,6.13
2023-02-27T20:09:23.190Z,5.50
2023-02-27T20:11:56.891Z,4.97
2023-02-27T20:14:25.390Z,5.13
2023-02-27T20:16:55.939Z,5.07
2023-02-27T20:19:24.766Z,4.53
2023-02-27T20:21:54.298Z,4.50
2023-02-27T20:24:24.574Z,5.22
2023-02-27T20:26:53.489Z,4.38
2023-02-27T20:29:25.331Z,5.25
2023-02-27T20:31:55.456Z,4.80
2023-02-27T20:34:28.600Z,4.57
2023-02-27T20:36:57.968Z,4.65
2023-02-27T20:39:28.963Z,4.30
2023-02-27T20:41:57.740Z,4.72
2023-02-27T20:44:26.288Z,4.57
2023-02-27T20:46:55.792Z,4.25
2023-02-27T20:49:26.038Z,3.90
2023-02-27T20:51:54.318Z,4.28
2023-02-27T20:54:22.672Z,5.28
2023-02-27T20:56:57.583Z,6.95
2023-02-27T20:59:26.477Z,6.00
2023-02-27T21:01:55.784Z,5.20
2023-02-27T21:04:42.202Z,4.95
2023-02-27T21:07:12.107Z,3.70
2023-02-27T21:09:40.651Z,7.75
2023-02-27T21:12:11.735Z,5.80
2023-02-27T21:14:40.240Z,5.90
2023-02-27T21:17:08.606Z,5.28
2023-02-27T21:19:36.902Z,6.22
2023-02-27T21:22:07.488Z,5.82
2023-02-27T21:24:35.759Z,3.90
2023-02-27T21:27:04.308Z,3.80
2023-02-27T21:29:33.939Z,5.22
2023-02-27T21:32:02.361Z,5.72
2023-02-27T21:34:30.708Z,5.72
2023-02-27T21:36:59.009Z,4.10
2023-02-27T21:39:29.132Z,3.88
2023-02-27T21:42:00.145Z,5.80
2023-02-27T21:44:29.776Z,4.50
2023-02-27T21:46:59.710Z,4.00
2023-02-27T21:49:31.187Z,3.03
2023-02-27T21:51:59.461Z,2.92
2023-02-27T21:54:27.746Z,3.25
2023-02-27T21:56:57.859Z,3.60
2023-02-27T21:59:26.198Z,3.10
2023-02-27T22:01:54.834Z,3.40
2023-02-27T22:04:25.592Z,3.58
2023-02-27T22:06:54.163Z,3.83
2023-02-27T22:09:26.531Z,3.10
2023-02-27T22:11:55.168Z,3.47
2023-02-27T22:14:24.736Z,3.60
2023-02-27T22:16:53.241Z,3.53
2023-02-27T22:19:23.491Z,3.55
2023-02-27T22:21:51.709Z,3.70
2023-02-27T22:24:23.062Z,4.10
2023-02-27T22:26:51.315Z,3.75
2023-02-27T22:29:19.765Z,4.10
2023-02-27T22:31:48.187Z,3.58
2023-02-27T22:34:19.319Z,4.35
2023-02-27T22:36:52.447Z,3.70
2023-02-27T22:39:21.802Z,3.85
2023-02-27T22:41:54.847Z,3.88
2023-02-27T22:44:24.321Z,3.55
2023-02-27T22:46:54.556Z,3.78
2023-02-27T22:49:24.924Z,4.13
2023-02-27T22:51:54.531Z,4.03
2023-02-27T22:54:24.203Z,3.80
2023-02-27T22:56:55.174Z,4.18
2023-02-27T22:59:38.840Z,3.63
2023-02-27T23:02:07.263Z,3.45
2023-02-27T23:04:35.551Z,3.80
2023-02-27T23:07:09.284Z,3.83
2023-02-27T23:09:37.520Z,3.65
2023-02-27T23:12:06.398Z,4.40
2023-02-27T23:14:34.814Z,4.10
2023-02-27T23:17:03.006Z,4.13
2023-02-27T23:19:32.363Z,3.70
2023-02-27T23:22:00.617Z,4.05
2023-02-27T23:24:30.240Z,3.90
2023-02-27T23:26:58.416Z,4.13
2023-02-27T23:29:26.628Z,4.05
2023-02-27T23:31:54.958Z,4.25
2023-02-27T23:34:23.253Z,4.57
2023-02-27T23:36:53.357Z,4.15
2023-02-27T23:39:21.584Z,3.70
2023-02-27T23:41:51.189Z,3.75
2023-02-27T23:44:19.392Z,3.80
2023-02-27T23:46:47.640Z,3.70
2023-02-27T23:49:21.151Z,4.38
2023-02-27T23:51:49.398Z,3.67
2023-02-27T23:54:19.520Z,3.67
2023-02-27T23:56:50.105Z,3.97
2023-02-27T23:59:22.425Z,3.47
